sensor_id;sensor_type;location;lat;lon;timestamp;temperature;humidity
53073;DHT22;38955;48.916;2.336;2023-05-13T00:01:47;15.60;99.90
53073;DHT22;38955;48.916;2.336;2023-05-13T00:03:51;15.60;99.90
53073;DHT22;38955;48.916;2.336;2023-05-13T00:05:53;15.60;99.90
53073;DHT22;38955;48.916;2.336;2023-05-13T00:07:57;15.60;99.90
53073;DHT22;38955;48.916;2.336;2023-05-13T00:10:03;15.50;99.90
53073;DHT22;38955;48.916;2.336;2023-05-13T00:12:05;15.50;99.90
53073;DHT22;38955;48.916;2.336;2023-05-13T00:14:08;15.50;99.90
53073;DHT22;38955;48.916;2.336;2023-05-13T00:16:11;15.40;99.90
53073;DHT22;38955;48.916;2.336;2023-05-13T00:18:14;15.30;99.90
53073;DHT22;38955;48.916;2.336;2023-05-13T00:20:19;15.20;99.90
53073;DHT22;38955;48.916;2.336;2023-05-13T00:22:21;15.20;99.90
53073;DHT22;38955;48.916;2.336;2023-05-13T00:24:25;15.20;99.90
53073;DHT22;38955;48.916;2.336;2023-05-13T00:26:27;15.30;99.90
53073;DHT22;38955;48.916;2.336;2023-05-13T00:28:29;15.20;99.90
53073;DHT22;38955;48.916;2.336;2023-05-13T00:30:31;15.40;99.90
53073;DHT22;38955;48.916;2.336;2023-05-13T00:32:33;15.30;99.90
53073;DHT22;38955;48.916;2.336;2023-05-13T00:34:35;15.40;99.90
53073;DHT22;38955;48.916;2.336;2023-05-13T00:36:38;15.30;99.90
53073;DHT22;38955;48.916;2.336;2023-05-13T00:38:40;15.20;99.90
53073;DHT22;38955;48.916;2.336;2023-05-13T00:40:46;15.20;99.90
53073;DHT22;38955;48.916;2.336;2023-05-13T00:42:48;15.10;99.90
53073;DHT22;38955;48.916;2.336;2023-05-13T00:44:51;15.10;99.90
53073;DHT22;38955;48.916;2.336;2023-05-13T00:46:53;15.10;99.90
53073;DHT22;38955;48.916;2.336;2023-05-13T00:48:55;15.10;99.90
53073;DHT22;38955;48.916;2.336;2023-05-13T00:50:58;15.10;99.90
53073;DHT22;38955;48.916;2.336;2023-05-13T00:53:02;15.10;99.90
53073;DHT22;38955;48.916;2.336;2023-05-13T00:55:06;15.30;99.90
53073;DHT22;38955;48.916;2.336;2023-05-13T00:57:10;15.20;99.90
53073;DHT22;38955;48.916;2.336;2023-05-13T00:59:12;15.30;99.90
53073;DHT22;38955;48.916;2.336;2023-05-13T01:01:16;15.20;99.90
53073;DHT22;38955;48.916;2.336;2023-05-13T01:03:28;15.20;99.90
53073;DHT22;38955;48.916;2.336;2023-05-13T01:05:40;15.10;99.90
53073;DHT22;38955;48.916;2.336;2023-05-13T01:07:50;15.00;99.90
53073;DHT22;38955;48.916;2.336;2023-05-13T01:09:59;15.10;99.90
53073;DHT22;38955;48.916;2.336;2023-05-13T01:12:08;15.20;99.90
53073;DHT22;38955;48.916;2.336;2023-05-13T01:14:16;15.20;99.90
53073;DHT22;38955;48.916;2.336;2023-05-13T01:16:23;15.20;99.90
53073;DHT22;38955;48.916;2.336;2023-05-13T01:18:30;15.20;99.90
53073;DHT22;38955;48.916;2.336;2023-05-13T01:20:34;15.10;99.90
53073;DHT22;38955;48.916;2.336;2023-05-13T01:22:39;15.20;99.90
53073;DHT22;38955;48.916;2.336;2023-05-13T01:24:41;15.20;99.90
53073;DHT22;38955;48.916;2.336;2023-05-13T01:26:44;15.20;99.90
53073;DHT22;38955;48.916;2.336;2023-05-13T01:28:46;15.20;99.90
53073;DHT22;38955;48.916;2.336;2023-05-13T01:30:48;15.10;99.90
53073;DHT22;38955;48.916;2.336;2023-05-13T01:32:50;15.00;99.90
53073;DHT22;38955;48.916;2.336;2023-05-13T01:34:53;14.90;99.90
53073;DHT22;38955;48.916;2.336;2023-05-13T01:36:57;14.90;99.90
53073;DHT22;38955;48.916;2.336;2023-05-13T01:39:02;14.90;99.90
53073;DHT22;38955;48.916;2.336;2023-05-13T01:41:04;14.90;99.90
53073;DHT22;38955;48.916;2.336;2023-05-13T01:43:06;14.90;99.90
53073;DHT22;38955;48.916;2.336;2023-05-13T01:45:09;14.80;99.90
53073;DHT22;38955;48.916;2.336;2023-05-13T01:47:12;14.80;99.90
53073;DHT22;38955;48.916;2.336;2023-05-13T01:49:14;14.80;99.90
53073;DHT22;38955;48.916;2.336;2023-05-13T01:51:16;14.80;99.90
53073;DHT22;38955;48.916;2.336;2023-05-13T01:53:18;14.90;99.90
53073;DHT22;38955;48.916;2.336;2023-05-13T01:55:21;14.90;99.90
53073;DHT22;38955;48.916;2.336;2023-05-13T01:57:24;14.90;99.90
53073;DHT22;38955;48.916;2.336;2023-05-13T01:59:26;14.90;99.90
53073;DHT22;38955;48.916;2.336;2023-05-13T02:01:28;14.90;99.90
53073;DHT22;38955;48.916;2.336;2023-05-13T02:03:30;14.90;99.90
53073;DHT22;38955;48.916;2.336;2023-05-13T02:05:32;14.80;99.90
53073;DHT22;38955;48.916;2.336;2023-05-13T02:07:34;14.80;99.90
53073;DHT22;38955;48.916;2.336;2023-05-13T02:09:36;14.80;99.90
53073;DHT22;38955;48.916;2.336;2023-05-13T02:11:39;14.80;99.90
53073;DHT22;38955;48.916;2.336;2023-05-13T02:13:41;14.80;99.90
53073;DHT22;38955;48.916;2.336;2023-05-13T02:15:43;14.80;99.90
53073;DHT22;38955;48.916;2.336;2023-05-13T02:17:46;14.80;99.90
53073;DHT22;38955;48.916;2.336;2023-05-13T02:19:48;14.80;99.90
53073;DHT22;38955;48.916;2.336;2023-05-13T02:21:50;14.70;99.90
53073;DHT22;38955;48.916;2.336;2023-05-13T02:23:52;14.60;99.90
53073;DHT22;38955;48.916;2.336;2023-05-13T02:25:54;14.70;99.90
53073;DHT22;38955;48.916;2.336;2023-05-13T02:27:58;14.70;99.90
53073;DHT22;38955;48.916;2.336;2023-05-13T02:30:00;14.70;99.90
53073;DHT22;38955;48.916;2.336;2023-05-13T02:32:03;14.70;99.90
53073;DHT22;38955;48.916;2.336;2023-05-13T02:34:05;14.70;99.90
53073;DHT22;38955;48.916;2.336;2023-05-13T02:36:07;14.70;99.90
53073;DHT22;38955;48.916;2.336;2023-05-13T02:38:09;14.70;99.90
53073;DHT22;38955;48.916;2.336;2023-05-13T02:40:12;14.80;99.90
53073;DHT22;38955;48.916;2.336;2023-05-13T02:42:14;14.90;99.90
53073;DHT22;38955;48.916;2.336;2023-05-13T02:44:17;15.00;99.90
53073;DHT22;38955;48.916;2.336;2023-05-13T02:46:19;15.00;99.90
53073;DHT22;38955;48.916;2.336;2023-05-13T02:48:21;14.90;99.90
53073;DHT22;38955;48.916;2.336;2023-05-13T02:50:23;15.00;99.90
53073;DHT22;38955;48.916;2.336;2023-05-13T02:52:26;14.90;99.90
53073;DHT22;38955;48.916;2.336;2023-05-13T02:54:27;14.90;99.90
53073;DHT22;38955;48.916;2.336;2023-05-13T02:56:30;14.90;99.90
53073;DHT22;38955;48.916;2.336;2023-05-13T02:58:33;14.90;99.90
53073;DHT22;38955;48.916;2.336;2023-05-13T03:00:36;14.70;99.90
53073;DHT22;38955;48.916;2.336;2023-05-13T03:02:38;14.80;99.90
53073;DHT22;38955;48.916;2.336;2023-05-13T03:04:40;14.70;99.90
53073;DHT22;38955;48.916;2.336;2023-05-13T03:06:42;14.60;99.90
53073;DHT22;38955;48.916;2.336;2023-05-13T03:08:45;14.60;99.90
53073;DHT22;38955;48.916;2.336;2023-05-13T03:10:47;14.60;99.90
53073;DHT22;38955;48.916;2.336;2023-05-13T03:12:49;14.60;99.90
53073;DHT22;38955;48.916;2.336;2023-05-13T03:14:51;14.50;99.90
53073;DHT22;38955;48.916;2.336;2023-05-13T03:16:54;14.50;99.90
53073;DHT22;38955;48.916;2.336;2023-05-13T03:18:56;14.50;99.90
53073;DHT22;38955;48.916;2.336;2023-05-13T03:20:58;14.50;99.90
53073;DHT22;38955;48.916;2.336;2023-05-13T03:23:01;14.50;99.90
53073;DHT22;38955;48.916;2.336;2023-05-13T03:25:03;14.40;99.90
53073;DHT22;38955;48.916;2.336;2023-05-13T03:27:05;14.50;99.90
53073;DHT22;38955;48.916;2.336;2023-05-13T03:29:07;14.40;99.90
53073;DHT22;38955;48.916;2.336;2023-05-13T03:31:09;14.40;99.90
53073;DHT22;38955;48.916;2.336;2023-05-13T03:33:13;14.30;99.90
53073;DHT22;38955;48.916;2.336;2023-05-13T03:35:15;14.30;99.90
53073;DHT22;38955;48.916;2.336;2023-05-13T03:37:17;14.20;99.90
53073;DHT22;38955;48.916;2.336;2023-05-13T03:39:19;14.20;99.90
53073;DHT22;38955;48.916;2.336;2023-05-13T03:41:21;14.20;99.90
53073;DHT22;38955;48.916;2.336;2023-05-13T03:43:23;14.20;99.90
53073;DHT22;38955;48.916;2.336;2023-05-13T03:45:25;14.20;99.90
53073;DHT22;38955;48.916;2.336;2023-05-13T03:47:27;14.30;99.90
53073;DHT22;38955;48.916;2.336;2023-05-13T03:49:30;14.30;99.90
53073;DHT22;38955;48.916;2.336;2023-05-13T03:51:33;14.20;99.90
53073;DHT22;38955;48.916;2.336;2023-05-13T03:53:35;14.20;99.90
53073;DHT22;38955;48.916;2.336;2023-05-13T03:55:37;14.20;99.90
53073;DHT22;38955;48.916;2.336;2023-05-13T03:57:39;14.20;99.90
53073;DHT22;38955;48.916;2.336;2023-05-13T03:59:41;14.10;99.90
53073;DHT22;38955;48.916;2.336;2023-05-13T04:01:44;14.10;99.90
53073;DHT22;38955;48.916;2.336;2023-05-13T04:03:46;14.10;99.90
53073;DHT22;38955;48.916;2.336;2023-05-13T04:05:51;14.10;99.90
53073;DHT22;38955;48.916;2.336;2023-05-13T04:07:53;14.10;99.90
53073;DHT22;38955;48.916;2.336;2023-05-13T04:09:56;14.10;99.90
53073;DHT22;38955;48.916;2.336;2023-05-13T04:11:58;14.10;99.90
53073;DHT22;38955;48.916;2.336;2023-05-13T04:14:00;14.00;99.90
53073;DHT22;38955;48.916;2.336;2023-05-13T04:16:02;14.10;99.90
53073;DHT22;38955;48.916;2.336;2023-05-13T04:18:05;14.10;99.90
53073;DHT22;38955;48.916;2.336;2023-05-13T04:20:08;14.10;99.90
53073;DHT22;38955;48.916;2.336;2023-05-13T04:22:11;14.10;99.90
53073;DHT22;38955;48.916;2.336;2023-05-13T04:24:13;14.10;99.90
53073;DHT22;38955;48.916;2.336;2023-05-13T04:26:15;14.10;99.90
53073;DHT22;38955;48.916;2.336;2023-05-13T04:28:17;14.10;99.90
53073;DHT22;38955;48.916;2.336;2023-05-13T04:30:20;14.10;99.90
53073;DHT22;38955;48.916;2.336;2023-05-13T04:32:22;14.10;99.90
53073;DHT22;38955;48.916;2.336;2023-05-13T04:34:24;14.10;99.90
53073;DHT22;38955;48.916;2.336;2023-05-13T04:36:26;14.10;99.90
53073;DHT22;38955;48.916;2.336;2023-05-13T04:38:30;14.10;99.90
53073;DHT22;38955;48.916;2.336;2023-05-13T04:40:32;14.10;99.90
53073;DHT22;38955;48.916;2.336;2023-05-13T04:42:34;14.10;99.90
53073;DHT22;38955;48.916;2.336;2023-05-13T04:44:37;14.00;99.90
53073;DHT22;38955;48.916;2.336;2023-05-13T04:46:39;14.10;99.90
53073;DHT22;38955;48.916;2.336;2023-05-13T04:48:41;14.10;99.90
53073;DHT22;38955;48.916;2.336;2023-05-13T04:50:44;14.10;99.90
53073;DHT22;38955;48.916;2.336;2023-05-13T04:52:47;14.10;99.90
53073;DHT22;38955;48.916;2.336;2023-05-13T04:54:51;14.10;99.90
53073;DHT22;38955;48.916;2.336;2023-05-13T04:56:53;14.10;99.90
53073;DHT22;38955;48.916;2.336;2023-05-13T04:58:55;14.10;99.90
53073;DHT22;38955;48.916;2.336;2023-05-13T05:00:57;14.10;99.90
53073;DHT22;38955;48.916;2.336;2023-05-13T05:02:59;14.10;99.90
53073;DHT22;38955;48.916;2.336;2023-05-13T05:05:01;14.20;99.90
53073;DHT22;38955;48.916;2.336;2023-05-13T05:07:04;14.20;99.90
53073;DHT22;38955;48.916;2.336;2023-05-13T05:09:06;14.20;99.90
53073;DHT22;38955;48.916;2.336;2023-05-13T05:11:10;14.30;99.90
53073;DHT22;38955;48.916;2.336;2023-05-13T05:13:12;14.20;99.90
53073;DHT22;38955;48.916;2.336;2023-05-13T05:15:14;14.20;99.90
53073;DHT22;38955;48.916;2.336;2023-05-13T05:17:16;14.30;99.90
53073;DHT22;38955;48.916;2.336;2023-05-13T05:19:18;14.20;99.90
53073;DHT22;38955;48.916;2.336;2023-05-13T05:21:25;14.20;99.90
53073;DHT22;38955;48.916;2.336;2023-05-13T05:23:27;14.20;99.90
53073;DHT22;38955;48.916;2.336;2023-05-13T05:25:29;14.30;99.90
53073;DHT22;38955;48.916;2.336;2023-05-13T05:27:32;14.30;99.90
53073;DHT22;38955;48.916;2.336;2023-05-13T05:29:34;14.40;99.90
53073;DHT22;38955;48.916;2.336;2023-05-13T05:31:36;14.40;99.90
53073;DHT22;38955;48.916;2.336;2023-05-13T05:33:39;14.30;99.90
53073;DHT22;38955;48.916;2.336;2023-05-13T05:35:43;14.40;99.90
53073;DHT22;38955;48.916;2.336;2023-05-13T05:37:45;14.40;99.90
53073;DHT22;38955;48.916;2.336;2023-05-13T05:39:47;14.40;99.90
53073;DHT22;38955;48.916;2.336;2023-05-13T05:41:49;14.50;99.90
53073;DHT22;38955;48.916;2.336;2023-05-13T05:43:52;14.50;99.90
53073;DHT22;38955;48.916;2.336;2023-05-13T05:45:55;14.50;99.90
53073;DHT22;38955;48.916;2.336;2023-05-13T05:47:57;14.50;99.90
53073;DHT22;38955;48.916;2.336;2023-05-13T05:49:59;14.50;99.90
53073;DHT22;38955;48.916;2.336;2023-05-13T05:52:01;14.40;99.90
53073;DHT22;38955;48.916;2.336;2023-05-13T05:54:03;14.60;99.90
53073;DHT22;38955;48.916;2.336;2023-05-13T05:56:06;14.60;99.90
53073;DHT22;38955;48.916;2.336;2023-05-13T05:58:09;14.60;99.90
53073;DHT22;38955;48.916;2.336;2023-05-13T06:00:17;14.70;99.90
53073;DHT22;38955;48.916;2.336;2023-05-13T06:02:19;14.70;99.90
53073;DHT22;38955;48.916;2.336;2023-05-13T06:04:22;14.70;99.90
53073;DHT22;38955;48.916;2.336;2023-05-13T06:06:24;14.90;99.90
53073;DHT22;38955;48.916;2.336;2023-05-13T06:08:26;14.90;99.90
53073;DHT22;38955;48.916;2.336;2023-05-13T06:10:31;15.00;99.90
53073;DHT22;38955;48.916;2.336;2023-05-13T06:12:33;15.10;99.90
53073;DHT22;38955;48.916;2.336;2023-05-13T06:14:35;15.00;99.90
53073;DHT22;38955;48.916;2.336;2023-05-13T06:16:38;15.00;99.90
53073;DHT22;38955;48.916;2.336;2023-05-13T06:18:40;15.00;99.90
53073;DHT22;38955;48.916;2.336;2023-05-13T06:20:44;14.90;99.90
53073;DHT22;38955;48.916;2.336;2023-05-13T06:22:46;15.00;99.90
53073;DHT22;38955;48.916;2.336;2023-05-13T06:24:48;15.00;99.90
53073;DHT22;38955;48.916;2.336;2023-05-13T06:26:51;15.10;99.90
53073;DHT22;38955;48.916;2.336;2023-05-13T06:28:53;15.10;99.90
53073;DHT22;38955;48.916;2.336;2023-05-13T06:30:55;15.00;99.90
53073;DHT22;38955;48.916;2.336;2023-05-13T06:32:58;14.90;99.90
53073;DHT22;38955;48.916;2.336;2023-05-13T06:35:04;14.80;99.90
53073;DHT22;38955;48.916;2.336;2023-05-13T06:37:06;14.80;99.90
53073;DHT22;38955;48.916;2.336;2023-05-13T06:39:08;14.80;99.90
53073;DHT22;38955;48.916;2.336;2023-05-13T06:41:11;14.90;99.90
53073;DHT22;38955;48.916;2.336;2023-05-13T06:43:13;15.00;99.90
53073;DHT22;38955;48.916;2.336;2023-05-13T06:45:17;15.00;99.90
53073;DHT22;38955;48.916;2.336;2023-05-13T06:47:23;15.20;99.90
53073;DHT22;38955;48.916;2.336;2023-05-13T06:49:27;15.30;99.90
53073;DHT22;38955;48.916;2.336;2023-05-13T06:51:29;15.40;99.90
53073;DHT22;38955;48.916;2.336;2023-05-13T06:53:33;15.40;99.90
53073;DHT22;38955;48.916;2.336;2023-05-13T06:55:35;15.50;99.90
53073;DHT22;38955;48.916;2.336;2023-05-13T06:57:42;15.50;99.90
53073;DHT22;38955;48.916;2.336;2023-05-13T06:59:47;15.50;99.90
53073;DHT22;38955;48.916;2.336;2023-05-13T07:01:49;15.50;99.90
53073;DHT22;38955;48.916;2.336;2023-05-13T07:03:51;15.60;99.90
53073;DHT22;38955;48.916;2.336;2023-05-13T07:05:54;15.80;99.90
53073;DHT22;38955;48.916;2.336;2023-05-13T07:07:56;16.00;99.90
53073;DHT22;38955;48.916;2.336;2023-05-13T07:09:58;16.10;99.90
53073;DHT22;38955;48.916;2.336;2023-05-13T07:12:00;15.90;99.90
53073;DHT22;38955;48.916;2.336;2023-05-13T07:14:02;15.80;99.90
53073;DHT22;38955;48.916;2.336;2023-05-13T07:16:05;15.90;99.90
53073;DHT22;38955;48.916;2.336;2023-05-13T07:18:07;15.90;99.90
53073;DHT22;38955;48.916;2.336;2023-05-13T07:20:10;16.20;99.90
53073;DHT22;38955;48.916;2.336;2023-05-13T07:22:13;16.10;99.90
53073;DHT22;38955;48.916;2.336;2023-05-13T07:24:15;16.00;99.90
53073;DHT22;38955;48.916;2.336;2023-05-13T07:26:17;16.10;99.90
53073;DHT22;38955;48.916;2.336;2023-05-13T07:28:19;16.10;99.90
53073;DHT22;38955;48.916;2.336;2023-05-13T07:30:22;16.00;99.90
53073;DHT22;38955;48.916;2.336;2023-05-13T07:32:24;16.10;99.90
53073;DHT22;38955;48.916;2.336;2023-05-13T07:34:26;16.20;99.90
53073;DHT22;38955;48.916;2.336;2023-05-13T07:36:28;16.30;99.90
53073;DHT22;38955;48.916;2.336;2023-05-13T07:38:32;16.20;99.90
53073;DHT22;38955;48.916;2.336;2023-05-13T07:40:34;16.30;99.90
53073;DHT22;38955;48.916;2.336;2023-05-13T07:42:36;16.30;99.90
53073;DHT22;38955;48.916;2.336;2023-05-13T07:44:38;16.10;99.90
53073;DHT22;38955;48.916;2.336;2023-05-13T07:46:41;16.10;99.90
53073;DHT22;38955;48.916;2.336;2023-05-13T07:48:43;16.20;99.90
53073;DHT22;38955;48.916;2.336;2023-05-13T07:50:45;16.20;99.90
53073;DHT22;38955;48.916;2.336;2023-05-13T07:52:48;16.20;99.90
53073;DHT22;38955;48.916;2.336;2023-05-13T07:54:53;16.00;99.90
53073;DHT22;38955;48.916;2.336;2023-05-13T07:56:56;16.00;99.90
53073;DHT22;38955;48.916;2.336;2023-05-13T07:58:58;16.00;99.90
53073;DHT22;38955;48.916;2.336;2023-05-13T08:00:59;16.00;99.90
53073;DHT22;38955;48.916;2.336;2023-05-13T08:03:02;15.90;99.90
53073;DHT22;38955;48.916;2.336;2023-05-13T08:05:05;15.90;99.90
53073;DHT22;38955;48.916;2.336;2023-05-13T08:07:09;16.00;99.90
53073;DHT22;38955;48.916;2.336;2023-05-13T08:09:12;16.00;99.90
53073;DHT22;38955;48.916;2.336;2023-05-13T08:11:16;15.90;99.90
53073;DHT22;38955;48.916;2.336;2023-05-13T08:13:18;15.80;99.90
53073;DHT22;38955;48.916;2.336;2023-05-13T08:15:20;15.90;99.90
53073;DHT22;38955;48.916;2.336;2023-05-13T08:17:22;15.90;99.90
53073;DHT22;38955;48.916;2.336;2023-05-13T08:19:25;16.00;99.90
53073;DHT22;38955;48.916;2.336;2023-05-13T08:21:27;15.90;99.90
53073;DHT22;38955;48.916;2.336;2023-05-13T08:23:29;15.90;99.90
53073;DHT22;38955;48.916;2.336;2023-05-13T08:25:45;15.90;99.90
53073;DHT22;38955;48.916;2.336;2023-05-13T08:27:49;16.00;99.90
53073;DHT22;38955;48.916;2.336;2023-05-13T08:29:52;16.00;99.90
53073;DHT22;38955;48.916;2.336;2023-05-13T08:31:54;15.90;99.90
53073;DHT22;38955;48.916;2.336;2023-05-13T08:33:56;15.90;99.90
53073;DHT22;38955;48.916;2.336;2023-05-13T08:35:59;15.80;99.90
53073;DHT22;38955;48.916;2.336;2023-05-13T08:38:01;15.80;99.90
53073;DHT22;38955;48.916;2.336;2023-05-13T08:40:07;15.90;99.90
53073;DHT22;38955;48.916;2.336;2023-05-13T08:42:10;15.90;99.90
53073;DHT22;38955;48.916;2.336;2023-05-13T08:44:16;15.80;99.90
53073;DHT22;38955;48.916;2.336;2023-05-13T08:46:23;15.90;99.90
53073;DHT22;38955;48.916;2.336;2023-05-13T08:48:28;16.00;99.90
53073;DHT22;38955;48.916;2.336;2023-05-13T08:50:31;16.10;99.90
53073;DHT22;38955;48.916;2.336;2023-05-13T08:52:33;16.10;99.90
53073;DHT22;38955;48.916;2.336;2023-05-13T08:54:35;16.00;99.90
53073;DHT22;38955;48.916;2.336;2023-05-13T08:56:39;16.00;99.90
53073;DHT22;38955;48.916;2.336;2023-05-13T08:58:41;15.90;99.90
53073;DHT22;38955;48.916;2.336;2023-05-13T09:00:44;16.00;99.90
53073;DHT22;38955;48.916;2.336;2023-05-13T09:02:48;16.20;99.90
53073;DHT22;38955;48.916;2.336;2023-05-13T09:04:52;16.20;99.90
53073;DHT22;38955;48.916;2.336;2023-05-13T09:06:54;16.40;99.90
53073;DHT22;38955;48.916;2.336;2023-05-13T09:08:57;16.70;99.90
53073;DHT22;38955;48.916;2.336;2023-05-13T09:10:59;16.80;99.90
53073;DHT22;38955;48.916;2.336;2023-05-13T09:13:02;16.90;99.90
53073;DHT22;38955;48.916;2.336;2023-05-13T09:15:08;16.90;99.90
53073;DHT22;38955;48.916;2.336;2023-05-13T09:17:11;16.80;99.90
53073;DHT22;38955;48.916;2.336;2023-05-13T09:19:14;16.70;99.90
53073;DHT22;38955;48.916;2.336;2023-05-13T09:21:22;16.70;99.90
53073;DHT22;38955;48.916;2.336;2023-05-13T09:23:26;16.70;99.90
53073;DHT22;38955;48.916;2.336;2023-05-13T09:25:28;16.80;99.90
53073;DHT22;38955;48.916;2.336;2023-05-13T09:27:35;16.70;99.90
53073;DHT22;38955;48.916;2.336;2023-05-13T09:29:39;16.60;99.90
53073;DHT22;38955;48.916;2.336;2023-05-13T09:31:41;16.60;99.90
53073;DHT22;38955;48.916;2.336;2023-05-13T09:33:52;16.70;99.90
53073;DHT22;38955;48.916;2.336;2023-05-13T09:35:54;16.70;99.90
53073;DHT22;38955;48.916;2.336;2023-05-13T09:37:56;16.80;99.90
53073;DHT22;38955;48.916;2.336;2023-05-13T09:39:59;17.10;99.90
53073;DHT22;38955;48.916;2.336;2023-05-13T09:42:01;17.40;99.90
53073;DHT22;38955;48.916;2.336;2023-05-13T09:44:06;17.50;99.90
53073;DHT22;38955;48.916;2.336;2023-05-13T09:46:10;17.60;99.90
53073;DHT22;38955;48.916;2.336;2023-05-13T09:48:12;17.50;99.90
53073;DHT22;38955;48.916;2.336;2023-05-13T09:50:16;17.40;99.90
53073;DHT22;38955;48.916;2.336;2023-05-13T09:52:18;17.50;99.90
53073;DHT22;38955;48.916;2.336;2023-05-13T09:54:22;17.50;99.90
53073;DHT22;38955;48.916;2.336;2023-05-13T09:56:24;17.50;99.90
53073;DHT22;38955;48.916;2.336;2023-05-13T09:58:31;17.40;99.90
53073;DHT22;38955;48.916;2.336;2023-05-13T10:00:34;17.40;99.90
53073;DHT22;38955;48.916;2.336;2023-05-13T10:02:40;17.50;99.80
53073;DHT22;38955;48.916;2.336;2023-05-13T10:04:42;17.70;99.40
53073;DHT22;38955;48.916;2.336;2023-05-13T10:06:47;17.80;99.60
53073;DHT22;38955;48.916;2.336;2023-05-13T10:08:49;17.90;99.70
53073;DHT22;38955;48.916;2.336;2023-05-13T10:10:54;18.00;99.20
53073;DHT22;38955;48.916;2.336;2023-05-13T10:12:58;18.00;99.40
53073;DHT22;38955;48.916;2.336;2023-05-13T10:15:05;18.20;99.60
53073;DHT22;38955;48.916;2.336;2023-05-13T10:17:08;18.20;98.40
53073;DHT22;38955;48.916;2.336;2023-05-13T10:19:11;18.30;98.60
53073;DHT22;38955;48.916;2.336;2023-05-13T10:21:14;18.50;98.60
53073;DHT22;38955;48.916;2.336;2023-05-13T10:23:19;18.50;98.40
53073;DHT22;38955;48.916;2.336;2023-05-13T10:25:21;18.50;98.50
53073;DHT22;38955;48.916;2.336;2023-05-13T10:27:27;18.40;98.30
53073;DHT22;38955;48.916;2.336;2023-05-13T10:29:33;18.40;98.60
53073;DHT22;38955;48.916;2.336;2023-05-13T10:31:37;18.30;98.90
53073;DHT22;38955;48.916;2.336;2023-05-13T10:33:39;18.30;99.20
53073;DHT22;38955;48.916;2.336;2023-05-13T10:35:47;18.40;98.90
53073;DHT22;38955;48.916;2.336;2023-05-13T10:37:59;18.50;98.70
53073;DHT22;38955;48.916;2.336;2023-05-13T10:40:16;18.80;99.00
53073;DHT22;38955;48.916;2.336;2023-05-13T10:42:38;19.00;98.80
53073;DHT22;38955;48.916;2.336;2023-05-13T10:44:40;19.20;98.10
53073;DHT22;38955;48.916;2.336;2023-05-13T10:46:43;19.20;97.90
53073;DHT22;38955;48.916;2.336;2023-05-13T10:48:48;19.20;97.50
53073;DHT22;38955;48.916;2.336;2023-05-13T10:50:53;19.10;97.50
53073;DHT22;38955;48.916;2.336;2023-05-13T10:52:57;19.10;97.60
53073;DHT22;38955;48.916;2.336;2023-05-13T10:55:00;19.30;97.70
53073;DHT22;38955;48.916;2.336;2023-05-13T10:57:05;19.30;97.50
53073;DHT22;38955;48.916;2.336;2023-05-13T10:59:07;19.50;97.60
53073;DHT22;38955;48.916;2.336;2023-05-13T11:01:14;19.50;97.40
53073;DHT22;38955;48.916;2.336;2023-05-13T11:03:27;19.60;97.40
53073;DHT22;38955;48.916;2.336;2023-05-13T11:05:31;19.50;96.80
53073;DHT22;38955;48.916;2.336;2023-05-13T11:07:36;19.50;96.80
53073;DHT22;38955;48.916;2.336;2023-05-13T11:09:39;19.60;97.00
53073;DHT22;38955;48.916;2.336;2023-05-13T11:11:46;19.50;97.10
53073;DHT22;38955;48.916;2.336;2023-05-13T11:13:51;19.70;97.30
53073;DHT22;38955;48.916;2.336;2023-05-13T11:15:53;19.80;96.80
53073;DHT22;38955;48.916;2.336;2023-05-13T11:17:56;19.90;96.60
53073;DHT22;38955;48.916;2.336;2023-05-13T11:19:58;19.90;96.70
53073;DHT22;38955;48.916;2.336;2023-05-13T11:22:07;20.00;96.80
53073;DHT22;38955;48.916;2.336;2023-05-13T11:24:09;20.00;96.50
53073;DHT22;38955;48.916;2.336;2023-05-13T11:26:17;20.10;96.70
53073;DHT22;38955;48.916;2.336;2023-05-13T11:28:55;20.20;96.70
53073;DHT22;38955;48.916;2.336;2023-05-13T11:31:14;20.30;96.60
53073;DHT22;38955;48.916;2.336;2023-05-13T11:33:16;20.30;96.70
53073;DHT22;38955;48.916;2.336;2023-05-13T11:35:19;20.30;96.60
53073;DHT22;38955;48.916;2.336;2023-05-13T11:37:22;20.40;96.40
53073;DHT22;38955;48.916;2.336;2023-05-13T11:39:24;20.50;95.90
53073;DHT22;38955;48.916;2.336;2023-05-13T11:41:30;20.40;96.00
53073;DHT22;38955;48.916;2.336;2023-05-13T11:43:32;20.40;96.20
53073;DHT22;38955;48.916;2.336;2023-05-13T11:45:38;20.40;96.00
53073;DHT22;38955;48.916;2.336;2023-05-13T11:47:42;20.30;96.30
53073;DHT22;38955;48.916;2.336;2023-05-13T11:49:45;20.40;96.30
53073;DHT22;38955;48.916;2.336;2023-05-13T11:51:47;20.50;96.20
53073;DHT22;38955;48.916;2.336;2023-05-13T11:53:49;20.60;96.10
53073;DHT22;38955;48.916;2.336;2023-05-13T11:55:51;20.50;95.70
53073;DHT22;38955;48.916;2.336;2023-05-13T11:57:54;20.60;95.90
53073;DHT22;38955;48.916;2.336;2023-05-13T11:59:57;20.70;96.00
53073;DHT22;38955;48.916;2.336;2023-05-13T12:02:01;20.70;96.00
53073;DHT22;38955;48.916;2.336;2023-05-13T12:04:03;20.60;96.00
53073;DHT22;38955;48.916;2.336;2023-05-13T12:06:06;20.80;95.80
53073;DHT22;38955;48.916;2.336;2023-05-13T12:08:08;20.90;95.40
53073;DHT22;38955;48.916;2.336;2023-05-13T12:10:11;20.90;94.80
53073;DHT22;38955;48.916;2.336;2023-05-13T12:12:13;21.00;94.60
53073;DHT22;38955;48.916;2.336;2023-05-13T12:14:16;20.90;94.60
53073;DHT22;38955;48.916;2.336;2023-05-13T12:16:18;21.00;94.00
53073;DHT22;38955;48.916;2.336;2023-05-13T12:18:22;21.00;94.50
53073;DHT22;38955;48.916;2.336;2023-05-13T12:20:24;21.10;94.40
53073;DHT22;38955;48.916;2.336;2023-05-13T12:22:26;21.20;94.00
53073;DHT22;38955;48.916;2.336;2023-05-13T12:24:32;21.30;93.60
53073;DHT22;38955;48.916;2.336;2023-05-13T12:26:34;21.30;92.80
53073;DHT22;38955;48.916;2.336;2023-05-13T12:28:36;21.30;92.30
53073;DHT22;38955;48.916;2.336;2023-05-13T12:30:41;21.40;92.60
53073;DHT22;38955;48.916;2.336;2023-05-13T12:32:43;21.40;92.80
53073;DHT22;38955;48.916;2.336;2023-05-13T12:34:50;21.40;92.50
53073;DHT22;38955;48.916;2.336;2023-05-13T12:36:52;21.40;93.00
53073;DHT22;38955;48.916;2.336;2023-05-13T12:38:56;21.30;92.60
53073;DHT22;38955;48.916;2.336;2023-05-13T12:41:10;21.30;92.50
53073;DHT22;38955;48.916;2.336;2023-05-13T12:43:15;21.50;92.50
53073;DHT22;38955;48.916;2.336;2023-05-13T12:45:17;21.60;92.10
53073;DHT22;38955;48.916;2.336;2023-05-13T12:47:20;21.60;92.50
53073;DHT22;38955;48.916;2.336;2023-05-13T12:49:24;21.70;91.70
53073;DHT22;38955;48.916;2.336;2023-05-13T12:51:28;21.50;91.60
53073;DHT22;38955;48.916;2.336;2023-05-13T12:53:34;21.40;90.40
53073;DHT22;38955;48.916;2.336;2023-05-13T12:55:37;21.40;90.20
53073;DHT22;38955;48.916;2.336;2023-05-13T12:57:41;21.40;90.80
53073;DHT22;38955;48.916;2.336;2023-05-13T12:59:43;21.40;90.50